createdAt,value
2023-05-16T00:00:34.670Z,99494.30
2023-05-16T00:03:21.113Z,99499.36
2023-05-16T00:05:47.424Z,99499.95
2023-05-16T00:08:13.660Z,99504.82
2023-05-16T00:10:40.009Z,99503.62
2023-05-16T00:13:06.507Z,99506.48
2023-05-16T00:15:32.878Z,99506.75
2023-05-16T00:17:59.634Z,99500.17
2023-05-16T00:20:27.464Z,99502.89
2023-05-16T00:22:54.811Z,99503.15
2023-05-16T00:25:21.109Z,99503.59
2023-05-16T00:27:47.444Z,99503.61
2023-05-16T00:30:13.724Z,99504.55
2023-05-16T00:32:40.054Z,99499.42
2023-05-16T00:35:10.037Z,99505.55
2023-05-16T00:37:37.847Z,99501.36
2023-05-16T00:40:06.860Z,99497.84
2023-05-16T00:42:34.074Z,99496.72
2023-05-16T00:45:00.673Z,99494.96
2023-05-16T00:47:26.962Z,99494.06
2023-05-16T00:49:53.363Z,99491.46
2023-05-16T00:52:19.875Z,99491.73
2023-05-16T00:54:46.340Z,99489.10
2023-05-16T00:57:12.910Z,99493.46
2023-05-16T00:59:41.944Z,99494.76
2023-05-16T01:02:08.379Z,99493.91
2023-05-16T01:04:35.090Z,99493.05
2023-05-16T01:07:02.106Z,99492.16
2023-05-16T01:09:28.510Z,99493.65
2023-05-16T01:12:17.539Z,99491.60
2023-05-16T01:15:00.736Z,99493.69
2023-05-16T01:18:12.049Z,99499.18
2023-05-16T01:21:03.277Z,99503.67
2023-05-16T01:23:48.930Z,99506.27
2023-05-16T01:26:21.861Z,99509.31
2023-05-16T01:28:50.293Z,99516.79
2023-05-16T01:31:16.898Z,99510.34
2023-05-16T01:33:43.580Z,99516.21
2023-05-16T01:36:29.776Z,99523.52
2023-05-16T01:39:00.976Z,99524.91
2023-05-16T01:41:37.921Z,99529.14
2023-05-16T01:44:10.979Z,99532.35
2023-05-16T01:46:43.530Z,99530.77
2023-05-16T01:49:16.606Z,99529.65
2023-05-16T01:51:50.931Z,99530.29
2023-05-16T01:54:19.667Z,99536.67
2023-05-16T01:56:52.877Z,99539.96
2023-05-16T01:59:24.536Z,99537.46
2023-05-16T02:01:54.445Z,99544.16
2023-05-16T02:04:21.649Z,99543.61
2023-05-16T02:06:48.231Z,99542.55
2023-05-16T02:09:15.638Z,99543.31
2023-05-16T02:11:41.943Z,99539.24
2023-05-16T02:14:08.783Z,99540.45
2023-05-16T02:16:36.011Z,99537.83
2023-05-16T02:19:02.355Z,99537.92
2023-05-16T02:21:28.768Z,99537.23
2023-05-16T02:23:55.155Z,99541.39
2023-05-16T02:26:21.882Z,99540.13
2023-05-16T02:28:51.023Z,99545.95
2023-05-16T02:31:28.648Z,99550.97
2023-05-16T02:33:55.113Z,99552.34
2023-05-16T02:36:21.729Z,99550.98
2023-05-16T02:38:48.239Z,99555.44
2023-05-16T02:41:14.695Z,99555.97
2023-05-16T02:43:41.195Z,99559.55
2023-05-16T02:46:21.363Z,99554.95
2023-05-16T02:48:47.907Z,99557.05
2023-05-16T02:51:14.310Z,99558.80
2023-05-16T02:53:41.121Z,99557.75
2023-05-16T02:56:08.174Z,99560.40
2023-05-16T02:58:34.675Z,99559.59
2023-05-16T03:01:01.266Z,99562.25
2023-05-16T03:03:27.639Z,99564.30
2023-05-16T03:05:53.948Z,99570.11
2023-05-16T03:08:20.498Z,99572.39
2023-05-16T03:10:46.836Z,99570.20
2023-05-16T03:13:13.276Z,99568.70
2023-05-16T03:15:39.680Z,99567.46
2023-05-16T03:18:05.932Z,99566.48
2023-05-16T03:20:32.353Z,99567.50
2023-05-16T03:22:58.778Z,99574.16
2023-05-16T03:25:26.714Z,99576.81
2023-05-16T03:27:53.385Z,99573.30
2023-05-16T03:30:19.776Z,99575.11
2023-05-16T03:32:46.166Z,99578.75
2023-05-16T03:35:12.835Z,99581.05
2023-05-16T03:37:39.759Z,99580.90
2023-05-16T03:40:07.733Z,99584.27
2023-05-16T03:42:34.398Z,99582.83
2023-05-16T03:45:00.712Z,99579.34
2023-05-16T03:47:30.526Z,99579.98
2023-05-16T03:49:57.265Z,99581.08
2023-05-16T03:52:24.175Z,99579.98
2023-05-16T03:54:50.461Z,99582.73
2023-05-16T03:57:16.843Z,99580.11
2023-05-16T03:59:43.685Z,99587.38
2023-05-16T04:02:12.788Z,99589.23
2023-05-16T04:04:39.117Z,99590.19
2023-05-16T04:07:06.006Z,99593.15
2023-05-16T04:09:32.226Z,99593.98
2023-05-16T04:12:01.265Z,99593.34
2023-05-16T04:14:27.765Z,99600.48
2023-05-16T04:16:54.501Z,99596.27
2023-05-16T04:19:20.893Z,99601.25
2023-05-16T04:21:47.671Z,99602.41
2023-05-16T04:24:14.307Z,99601.95
2023-05-16T04:26:40.720Z,99599.82
2023-05-16T04:29:07.583Z,99594.92
2023-05-16T04:31:33.957Z,99594.42
2023-05-16T04:34:01.039Z,99592.89
2023-05-16T04:36:29.563Z,99593.72
2023-05-16T04:38:56.993Z,99594.77
2023-05-16T04:41:23.589Z,99593.67
2023-05-16T04:43:50.181Z,99597.85
2023-05-16T04:46:16.751Z,99595.27
2023-05-16T04:48:43.131Z,99600.79
2023-05-16T04:51:09.409Z,99602.92
2023-05-16T04:53:36.147Z,99602.13
2023-05-16T04:56:04.393Z,99606.89
2023-05-16T04:58:31.244Z,99608.54
2023-05-16T05:00:57.530Z,99607.34
2023-05-16T05:03:23.818Z,99616.73
2023-05-16T05:05:51.157Z,99620.13
2023-05-16T05:08:18.303Z,99621.98
2023-05-16T05:10:44.625Z,99628.70
2023-05-16T05:13:11.211Z,99629.45
2023-05-16T05:15:38.045Z,99624.02
2023-05-16T05:18:04.554Z,99627.06
2023-05-16T05:20:31.655Z,99622.07
2023-05-16T05:22:57.925Z,99622.95
2023-05-16T05:25:24.415Z,99629.30
2023-05-16T05:27:50.860Z,99630.40
2023-05-16T05:30:18.093Z,99638.39
2023-05-16T05:32:44.498Z,99637.52
2023-05-16T05:35:11.156Z,99646.54
2023-05-16T05:37:37.428Z,99645.26
2023-05-16T05:40:04.198Z,99642.42
2023-05-16T05:42:30.468Z,99649.76
2023-05-16T05:44:56.707Z,99652.38
2023-05-16T05:47:25.787Z,99652.60
2023-05-16T05:49:52.299Z,99653.14
2023-05-16T05:52:18.648Z,99658.77
2023-05-16T05:54:45.088Z,99659.88
2023-05-16T05:57:11.389Z,99663.84
2023-05-16T05:59:37.795Z,99670.91
2023-05-16T06:02:04.583Z,99683.35
2023-05-16T06:04:31.055Z,99694.39
2023-05-16T06:06:57.455Z,99693.61
2023-05-16T06:09:23.678Z,99698.35
2023-05-16T06:11:50.445Z,99705.17
2023-05-16T06:14:16.673Z,99711.20
2023-05-16T06:16:43.130Z,99716.63
2023-05-16T06:19:11.690Z,99720.05
2023-05-16T06:21:38.034Z,99728.16
2023-05-16T06:24:04.494Z,99737.45
2023-05-16T06:26:31.113Z,99746.50
2023-05-16T06:28:57.526Z,99749.90
2023-05-16T06:31:24.281Z,99744.38
2023-05-16T06:33:50.756Z,99758.52
2023-05-16T06:36:17.086Z,99762.74
2023-05-16T06:38:43.424Z,99763.95
2023-05-16T06:41:09.812Z,99770.02
2023-05-16T06:43:36.127Z,99773.31
2023-05-16T06:46:03.298Z,99772.77
2023-05-16T06:48:29.751Z,99779.73
2023-05-16T06:50:56.951Z,99783.23
2023-05-16T06:53:23.396Z,99784.59
2023-05-16T06:55:50.662Z,99794.05
2023-05-16T06:58:18.072Z,99787.80
2023-05-16T07:00:44.621Z,99794.55
2023-05-16T07:03:11.134Z,99799.92
2023-05-16T07:05:37.558Z,99803.67
2023-05-16T07:08:06.234Z,99804.79
2023-05-16T07:10:34.307Z,99803.21
2023-05-16T07:13:01.183Z,99809.89
2023-05-16T07:15:28.098Z,99819.05
2023-05-16T07:17:54.721Z,99824.13
2023-05-16T07:20:21.383Z,99830.52
2023-05-16T07:22:47.856Z,99837.85
2023-05-16T07:25:15.325Z,99842.79
2023-05-16T07:27:44.154Z,99845.13
2023-05-16T07:30:13.942Z,99853.70
2023-05-16T07:32:41.047Z,99865.64
2023-05-16T07:35:07.907Z,99872.27
2023-05-16T07:37:35.388Z,99876.27
2023-05-16T07:40:02.981Z,99878.02
2023-05-16T07:42:31.153Z,99877.73
2023-05-16T07:44:57.635Z,99885.52
2023-05-16T07:47:24.041Z,99877.48
2023-05-16T07:49:50.674Z,99885.31
2023-05-16T07:52:17.533Z,99894.27
2023-05-16T07:54:46.621Z,99897.05
2023-05-16T07:57:16.454Z,99896.95
2023-05-16T07:59:43.849Z,99893.73
2023-05-16T08:02:10.802Z,99895.20
2023-05-16T08:04:37.379Z,99893.14
2023-05-16T08:07:04.176Z,99897.89
2023-05-16T08:09:30.795Z,99896.01
2023-05-16T08:11:57.119Z,99897.05
2023-05-16T08:14:23.442Z,99892.14
2023-05-16T08:16:49.983Z,99895.97
2023-05-16T08:19:16.578Z,99902.20
2023-05-16T08:21:43.308Z,99905.65
2023-05-16T08:24:10.681Z,99912.32
2023-05-16T08:26:37.968Z,99912.63
2023-05-16T08:29:05.269Z,99910.83
2023-05-16T08:31:32.372Z,99909.09
2023-05-16T08:33:59.394Z,99905.15
2023-05-16T08:36:26.324Z,99901.06
2023-05-16T08:38:52.792Z,99904.88
2023-05-16T08:41:19.177Z,99899.70
2023-05-16T08:43:46.167Z,99896.60
2023-05-16T08:46:12.849Z,99895.77
2023-05-16T08:48:42.171Z,99901.60
2023-05-16T08:51:10.140Z,99913.56
2023-05-16T08:53:41.937Z,99913.07
2023-05-16T08:56:09.804Z,99913.09
2023-05-16T08:58:37.360Z,99911.10
2023-05-16T09:01:08.327Z,99913.40
2023-05-16T09:03:38.477Z,99914.20
2023-05-16T09:06:07.311Z,99921.91
2023-05-16T09:08:34.540Z,99930.99
2023-05-16T09:11:04.739Z,99926.54
2023-05-16T09:13:31.027Z,99927.13
2023-05-16T09:16:14.948Z,99929.08
2023-05-16T09:18:44.104Z,99925.70
2023-05-16T09:21:11.938Z,99928.02
2023-05-16T09:23:38.837Z,99932.77
2023-05-16T09:26:07.410Z,99934.59
2023-05-16T09:28:36.611Z,99939.50
2023-05-16T09:31:03.103Z,99945.23
2023-05-16T09:33:29.693Z,99949.20
2023-05-16T09:35:57.582Z,99956.48
2023-05-16T09:38:25.761Z,99966.65
2023-05-16T09:40:52.935Z,99963.97
2023-05-16T09:43:23.008Z,99968.56
2023-05-16T09:45:49.538Z,99973.31
2023-05-16T09:48:17.313Z,99983.27
2023-05-16T09:50:52.532Z,99985.93
2023-05-16T09:53:34.510Z,99983.30
2023-05-16T09:56:07.222Z,99987.33
2023-05-16T09:58:35.865Z,99988.74
2023-05-16T10:01:02.655Z,99987.46
2023-05-16T10:03:29.632Z,99989.43
2023-05-16T10:05:56.222Z,99997.12
2023-05-16T10:08:25.185Z,99998.66
2023-05-16T10:10:54.351Z,100009.60
2023-05-16T10:13:28.656Z,100017.93
2023-05-16T10:15:56.596Z,100017.35
2023-05-16T10:18:29.706Z,100024.15
2023-05-16T10:21:01.752Z,100024.98
2023-05-16T10:23:29.965Z,100026.18
2023-05-16T10:25:57.222Z,100036.47
2023-05-16T10:28:25.042Z,100035.27
2023-05-16T10:30:53.242Z,100034.00
2023-05-16T10:33:19.848Z,100037.88
2023-05-16T10:35:46.570Z,100035.80
2023-05-16T10:38:17.512Z,100040.96
2023-05-16T10:40:47.041Z,100050.52
2023-05-16T10:43:24.669Z,100051.14
2023-05-16T10:45:55.627Z,100056.59
2023-05-16T10:48:30.476Z,100063.50
2023-05-16T10:50:56.836Z,100062.70
2023-05-16T10:53:33.400Z,100062.88
2023-05-16T10:55:59.970Z,100063.74
2023-05-16T10:58:38.295Z,100063.77
2023-05-16T11:01:23.778Z,100058.09
2023-05-16T11:03:56.250Z,100054.23
2023-05-16T11:06:25.173Z,100051.29
2023-05-16T11:09:10.334Z,100055.98
2023-05-16T11:11:52.246Z,100058.36
2023-05-16T11:14:34.068Z,100066.05
2023-05-16T11:17:13.002Z,100070.14
2023-05-16T11:19:47.136Z,100068.95
2023-05-16T11:22:19.280Z,100073.93
2023-05-16T11:24:54.619Z,100076.79
2023-05-16T11:27:23.232Z,100079.45
2023-05-16T11:29:50.303Z,100078.64
2023-05-16T11:32:20.506Z,100081.66
2023-05-16T11:34:47.616Z,100094.65
2023-05-16T11:37:15.160Z,100101.30
2023-05-16T11:39:41.588Z,100101.27
2023-05-16T11:42:08.763Z,100100.83
2023-05-16T11:44:35.115Z,100095.39
2023-05-16T11:47:02.021Z,100100.94
2023-05-16T11:49:29.378Z,100098.26
2023-05-16T11:51:57.119Z,100098.00
2023-05-16T11:54:24.088Z,100098.50
2023-05-16T11:56:51.834Z,100100.92
2023-05-16T11:59:18.319Z,100101.31
2023-05-16T12:01:47.535Z,100103.08
2023-05-16T12:04:19.516Z,100106.37
2023-05-16T12:06:59.197Z,100106.94
2023-05-16T12:09:25.899Z,100112.14
2023-05-16T12:11:52.669Z,100111.16
2023-05-16T12:14:19.578Z,100115.05
2023-05-16T12:16:46.318Z,100123.68
2023-05-16T12:19:13.388Z,100120.38
2023-05-16T12:21:39.962Z,100113.17
2023-05-16T12:24:12.249Z,100109.06
2023-05-16T12:26:40.680Z,100112.91
2023-05-16T12:29:07.409Z,100111.23
2023-05-16T12:31:39.802Z,100110.70
2023-05-16T12:34:17.156Z,100113.81
2023-05-16T12:36:51.266Z,100115.80
2023-05-16T12:39:17.779Z,100114.52
2023-05-16T12:41:44.190Z,100114.77
2023-05-16T12:44:14.193Z,100117.15
2023-05-16T12:46:42.170Z,100116.46
2023-05-16T12:49:08.997Z,100118.23
2023-05-16T12:51:35.708Z,100119.48
2023-05-16T12:54:11.637Z,100119.17
2023-05-16T12:56:39.403Z,100120.11
2023-05-16T12:59:05.868Z,100114.66
2023-05-16T13:01:33.002Z,100114.77
2023-05-16T13:03:59.451Z,100112.81
2023-05-16T13:06:27.886Z,100108.92
2023-05-16T13:08:55.375Z,100110.20
2023-05-16T13:11:22.024Z,100108.06
2023-05-16T13:13:48.426Z,100110.66
2023-05-16T13:16:15.036Z,100114.84
2023-05-16T13:18:41.487Z,100114.42
2023-05-16T13:21:08.016Z,100120.80
2023-05-16T13:23:34.336Z,100123.23
2023-05-16T13:26:00.653Z,100117.37
2023-05-16T13:28:27.088Z,100122.62
2023-05-16T13:30:53.481Z,100128.75
2023-05-16T13:33:19.761Z,100130.64
2023-05-16T13:35:46.870Z,100130.56
2023-05-16T13:38:13.362Z,100134.74
2023-05-16T13:40:39.760Z,100134.95
2023-05-16T13:43:06.140Z,100131.55
2023-05-16T13:45:32.899Z,100133.36
2023-05-16T13:47:59.428Z,100132.70
2023-05-16T13:50:33.332Z,100132.20
2023-05-16T13:53:00.327Z,100133.67
2023-05-16T13:55:27.621Z,100133.18
2023-05-16T13:57:54.209Z,100134.41
2023-05-16T14:02:50.330Z,100131.41
2023-05-16T14:05:16.935Z,100133.79
2023-05-16T14:07:44.762Z,100137.66
2023-05-16T14:10:13.267Z,100143.36
2023-05-16T14:12:40.085Z,100143.31
2023-05-16T14:15:07.295Z,100143.30
2023-05-16T14:17:33.628Z,100143.36
2023-05-16T14:19:59.969Z,100141.02
2023-05-16T14:22:27.875Z,100142.73
2023-05-16T14:24:54.299Z,100138.16
2023-05-16T14:27:20.805Z,100141.55
2023-05-16T14:29:48.175Z,100143.83
2023-05-16T14:32:14.759Z,100139.64
2023-05-16T14:34:41.318Z,100139.21
2023-05-16T14:37:09.668Z,100132.77
2023-05-16T14:39:36.157Z,100133.58
2023-05-16T14:42:02.654Z,100139.40
2023-05-16T14:44:29.157Z,100137.55
2023-05-16T14:46:55.612Z,100133.60
2023-05-16T14:49:22.048Z,100137.79
2023-05-16T14:51:51.271Z,100134.85
2023-05-16T14:54:18.380Z,100136.10
2023-05-16T14:56:44.976Z,100138.23
2023-05-16T14:59:12.141Z,100141.73
2023-05-16T15:01:41.556Z,100142.30
2023-05-16T15:04:07.953Z,100135.61
2023-05-16T15:06:34.863Z,100134.60
2023-05-16T15:09:01.260Z,100132.02
2023-05-16T15:11:28.402Z,100133.66
2023-05-16T15:13:56.517Z,100129.14
2023-05-16T15:16:22.819Z,100126.63
2023-05-16T15:18:49.339Z,100126.63
2023-05-16T15:21:16.670Z,100130.14
2023-05-16T15:23:43.053Z,100128.71
2023-05-16T15:26:09.491Z,100131.30
2023-05-16T15:28:35.915Z,100128.33
2023-05-16T15:31:04.852Z,100131.70
2023-05-16T15:33:31.144Z,100130.96
2023-05-16T15:35:57.465Z,100128.66
2023-05-16T15:38:23.719Z,100125.70
2023-05-16T15:40:55.252Z,100130.13
2023-05-16T15:43:28.088Z,100128.22
2023-05-16T15:45:54.347Z,100125.25
2023-05-16T15:48:21.018Z,100125.85
2023-05-16T15:50:47.361Z,100125.61
2023-05-16T15:53:13.710Z,100126.27
2023-05-16T15:55:40.315Z,100125.56
2023-05-16T15:58:09.350Z,100128.42
2023-05-16T16:00:35.768Z,100130.19
2023-05-16T16:03:02.272Z,100123.61
2023-05-16T16:05:30.404Z,100130.14
2023-05-16T16:08:00.074Z,100124.94
2023-05-16T16:10:26.493Z,100124.84
2023-05-16T16:13:03.660Z,100124.69
2023-05-16T16:15:33.179Z,100122.30
2023-05-16T16:18:01.528Z,100120.45
2023-05-16T16:20:28.042Z,100116.02
2023-05-16T16:22:54.476Z,100114.66
2023-05-16T16:25:21.096Z,100109.16
2023-05-16T16:27:47.726Z,100107.38
2023-05-16T16:30:14.432Z,100107.63
2023-05-16T16:32:40.893Z,100107.02
2023-05-16T16:35:07.781Z,100107.84
2023-05-16T16:37:34.957Z,100110.70
2023-05-16T16:40:01.569Z,100114.52
2023-05-16T16:42:29.829Z,100112.98
2023-05-16T16:44:56.447Z,100113.02
2023-05-16T16:47:24.337Z,100113.77
2023-05-16T16:49:51.077Z,100113.11
2023-05-16T16:52:17.478Z,100116.67
2023-05-16T16:54:43.850Z,100118.65
2023-05-16T16:57:10.429Z,100121.88
2023-05-16T16:59:36.816Z,100118.77
2023-05-16T17:02:03.254Z,100120.57
2023-05-16T17:04:30.770Z,100119.34
2023-05-16T17:06:57.163Z,100118.27
2023-05-16T17:09:24.690Z,100116.55
2023-05-16T17:11:51.562Z,100117.90
2023-05-16T17:14:38.841Z,100116.45
2023-05-16T17:17:05.623Z,100113.41
2023-05-16T17:19:32.227Z,100117.90
2023-05-16T17:21:58.754Z,100118.63
2023-05-16T17:24:25.184Z,100125.80
2023-05-16T17:26:51.925Z,100124.08
2023-05-16T17:29:18.896Z,100122.42
2023-05-16T17:31:45.384Z,100129.23
2023-05-16T17:34:11.879Z,100132.41
2023-05-16T17:36:38.735Z,100132.76
2023-05-16T17:39:07.467Z,100134.41
2023-05-16T17:41:34.832Z,100135.54
2023-05-16T17:44:01.267Z,100133.62
2023-05-16T17:46:27.758Z,100134.56
2023-05-16T17:48:54.154Z,100139.30
2023-05-16T17:51:20.593Z,100142.67
2023-05-16T17:53:47.040Z,100142.11
2023-05-16T17:56:13.433Z,100142.26
2023-05-16T17:58:39.887Z,100141.52
2023-05-16T18:01:08.451Z,100141.39
2023-05-16T18:03:35.530Z,100138.05
2023-05-16T18:06:02.113Z,100137.84
2023-05-16T18:08:28.595Z,100135.06
2023-05-16T18:10:55.099Z,100137.84
2023-05-16T18:13:23.274Z,100140.32
2023-05-16T18:15:50.168Z,100144.98
2023-05-16T18:18:17.226Z,100150.02
2023-05-16T18:20:45.353Z,100145.12
2023-05-16T18:23:11.989Z,100145.96
2023-05-16T18:25:38.501Z,100151.35
2023-05-16T18:28:04.995Z,100150.32
2023-05-16T18:30:31.511Z,100154.91
2023-05-16T18:32:58.960Z,100151.44
2023-05-16T18:35:27.670Z,100150.43
2023-05-16T18:37:54.478Z,100147.94
2023-05-16T18:40:21.920Z,100155.37
2023-05-16T18:42:48.406Z,100153.88
2023-05-16T18:45:14.943Z,100153.52
2023-05-16T18:47:41.505Z,100153.19
2023-05-16T18:50:08.583Z,100153.70
2023-05-16T18:52:36.328Z,100160.55
2023-05-16T18:55:03.145Z,100159.94
2023-05-16T18:57:29.930Z,100161.30
2023-05-16T18:59:57.517Z,100157.14
2023-05-16T19:02:37.829Z,100159.16
2023-05-16T19:05:09.823Z,100157.09
2023-05-16T19:07:36.395Z,100154.67
2023-05-16T19:10:04.051Z,100148.36
2023-05-16T19:12:34.496Z,100147.73
2023-05-16T19:15:02.650Z,100148.30
2023-05-16T19:17:29.376Z,100149.29
2023-05-16T19:19:56.015Z,100147.34
2023-05-16T19:22:22.638Z,100151.19
2023-05-16T19:24:49.404Z,100153.96
2023-05-16T19:27:16.047Z,100154.13
2023-05-16T19:29:42.535Z,100149.48
2023-05-16T19:32:10.292Z,100154.16
2023-05-16T19:34:37.029Z,100153.33
2023-05-16T19:37:03.620Z,100154.97
2023-05-16T19:39:31.366Z,100156.56
2023-05-16T19:42:06.230Z,100156.60
2023-05-16T19:44:34.482Z,100158.17
2023-05-16T19:47:01.274Z,100158.92
2023-05-16T19:49:28.746Z,100157.69
2023-05-16T19:51:56.702Z,100162.23
2023-05-16T19:54:26.188Z,100160.71
2023-05-16T19:56:55.216Z,100159.79
2023-05-16T19:59:21.995Z,100162.13
2023-05-16T20:01:48.586Z,100161.29
2023-05-16T20:04:15.161Z,100162.30
2023-05-16T20:06:41.916Z,100162.89
2023-05-16T20:09:08.720Z,100161.92
2023-05-16T20:11:35.840Z,100165.11
2023-05-16T20:14:02.701Z,100160.97
2023-05-16T20:16:29.357Z,100161.95
2023-05-16T20:18:56.341Z,100165.48
2023-05-16T20:21:23.523Z,100165.06
2023-05-16T20:23:50.219Z,100165.05
2023-05-16T20:26:16.605Z,100165.58
2023-05-16T20:28:42.978Z,100167.80
2023-05-16T20:31:09.540Z,100165.08
2023-05-16T20:33:36.011Z,100163.81
2023-05-16T20:36:04.286Z,100156.52
2023-05-16T20:38:30.834Z,100160.11
2023-05-16T20:40:57.500Z,100161.52
2023-05-16T20:43:25.932Z,100162.22
2023-05-16T20:45:53.109Z,100164.27
2023-05-16T20:48:20.251Z,100160.70
2023-05-16T20:50:46.876Z,100162.58
2023-05-16T20:53:13.255Z,100160.32
2023-05-16T20:55:39.679Z,100163.90
2023-05-16T20:58:06.128Z,100161.67
2023-05-16T21:00:33.086Z,100165.66
2023-05-16T21:02:59.453Z,100171.64
2023-05-16T21:05:26.219Z,100172.29
2023-05-16T21:07:53.744Z,100171.90
2023-05-16T21:10:20.126Z,100174.58
2023-05-16T21:12:46.553Z,100173.33
2023-05-16T21:15:13.040Z,100175.41
2023-05-16T21:17:40.983Z,100177.53
2023-05-16T21:20:08.323Z,100173.55
2023-05-16T21:22:35.083Z,100174.51
2023-05-16T21:25:01.546Z,100177.36
2023-05-16T21:27:27.974Z,100174.50
2023-05-16T21:29:54.382Z,100174.80
2023-05-16T21:32:20.819Z,100176.45
2023-05-16T21:34:47.233Z,100177.89
2023-05-16T21:37:14.145Z,100182.05
2023-05-16T21:39:40.646Z,100174.11
2023-05-16T21:42:07.089Z,100174.38
2023-05-16T21:44:33.478Z,100172.66
2023-05-16T21:46:59.852Z,100170.80
2023-05-16T21:49:26.429Z,100164.05
2023-05-16T21:51:52.957Z,100165.55
2023-05-16T21:54:19.376Z,100165.21
2023-05-16T21:56:45.800Z,100171.29
2023-05-16T21:59:13.142Z,100170.77
2023-05-16T22:01:39.526Z,100171.15
2023-05-16T22:04:06.318Z,100173.48
2023-05-16T22:06:34.197Z,100172.54
2023-05-16T22:09:01.114Z,100175.84
2023-05-16T22:11:27.834Z,100174.38
2023-05-16T22:13:54.376Z,100178.52
2023-05-16T22:16:21.001Z,100173.86
2023-05-16T22:18:47.720Z,100175.22
2023-05-16T22:21:15.700Z,100174.66
2023-05-16T22:23:42.656Z,100177.61
2023-05-16T22:26:09.386Z,100177.80
2023-05-16T22:28:35.893Z,100177.37
2023-05-16T22:31:02.275Z,100179.14
2023-05-16T22:33:28.821Z,100181.59
2023-05-16T22:35:55.534Z,100175.76
2023-05-16T22:38:21.892Z,100181.45
2023-05-16T22:40:48.410Z,100180.57
2023-05-16T22:43:14.987Z,100180.25
2023-05-16T22:45:41.420Z,100175.78
2023-05-16T22:48:08.011Z,100177.63
2023-05-16T22:50:34.651Z,100179.19
2023-05-16T22:53:01.001Z,100177.46
2023-05-16T22:55:27.731Z,100175.44
2023-05-16T22:57:56.581Z,100178.07
2023-05-16T23:00:23.106Z,100179.67
2023-05-16T23:02:49.672Z,100178.66
2023-05-16T23:05:16.408Z,100181.98
2023-05-16T23:07:42.875Z,100180.30
2023-05-16T23:10:09.361Z,100180.91
2023-05-16T23:12:35.835Z,100175.98
2023-05-16T23:15:02.767Z,100174.26
2023-05-16T23:17:29.346Z,100172.56
2023-05-16T23:19:55.885Z,100170.83
2023-05-16T23:22:22.345Z,100170.73
2023-05-16T23:24:48.695Z,100168.62
2023-05-16T23:27:15.125Z,100169.44
2023-05-16T23:29:41.791Z,100166.23
2023-05-16T23:32:08.532Z,100167.36
2023-05-16T23:34:35.026Z,100168.02
2023-05-16T23:37:01.576Z,100167.65
2023-05-16T23:39:28.192Z,100165.35
2023-05-16T23:41:54.877Z,100166.77
2023-05-16T23:44:21.213Z,100168.61
2023-05-16T23:46:47.801Z,100169.69
2023-05-16T23:49:14.255Z,100166.53
2023-05-16T23:51:56.081Z,100164.99
2023-05-16T23:54:27.294Z,100165.23
2023-05-16T23:56:53.714Z,100163.28
2023-05-16T23:59:21.792Z,100165.84
